Time;durP1;ratioP1;P1;durP2;ratioP2;P2;SDS_P1;SDS_P2;PMS_P1;PMS_P2;Temp;Humidity;BMP_temperature;BMP_pressure;BME280_temperature;BME280_humidity;BME280_pressure;Samples;Min_cycle;Max_cycle;Signal;HPM_P1;HPM_P2
2021/09/27 00:02:07;;;;;;;4.30;3.90;;;17.10;99.90;;;;;;5013435;28;20449;-71
2021/09/27 00:04:33;;;;;;;5.13;4.63;;;17.10;99.90;;;;;;5013689;28;20195;-70
2021/09/27 00:06:58;;;;;;;4.53;4.13;;;17.00;99.90;;;;;;5014005;28;20170;-71
2021/09/27 00:09:32;;;;;;;4.30;3.90;;;17.00;99.90;;;;;;5013882;28;20239;-71
2021/09/27 00:11:58;;;;;;;3.67;3.43;;;17.00;99.90;;;;;;5014023;28;20174;-70
2021/09/27 00:14:23;;;;;;;4.10;3.80;;;17.00;99.90;;;;;;5013375;28;20501;-70
2021/09/27 00:16:49;;;;;;;4.47;4.03;;;16.90;99.90;;;;;;5013953;28;20548;-69
2021/09/27 00:19:17;;;;;;;5.13;4.30;;;16.90;99.90;;;;;;5013720;28;20191;-69
2021/09/27 00:21:43;;;;;;;4.33;3.27;;;16.90;99.90;;;;;;5013766;28;20217;-70
2021/09/27 00:24:09;;;;;;;4.10;3.70;;;16.90;99.90;;;;;;5013244;28;20413;-70
2021/09/27 00:26:35;;;;;;;6.03;4.40;;;16.80;99.90;;;;;;5013173;28;20431;-70
2021/09/27 00:29:00;;;;;;;5.40;4.50;;;16.80;99.90;;;;;;5013422;28;20178;-70
2021/09/27 00:31:26;;;;;;;4.97;4.47;;;16.80;99.90;;;;;;5013369;28;20249;-71
2021/09/27 00:33:52;;;;;;;4.10;3.70;;;16.80;99.90;;;;;;5013371;28;20169;-71
2021/09/27 00:36:17;;;;;;;5.23;4.73;;;16.80;99.90;;;;;;5012401;28;20237;-71
2021/09/27 00:38:43;;;;;;;4.50;3.60;;;16.80;99.90;;;;;;5013462;28;20264;-71
2021/09/27 00:41:14;;;;;;;5.17;4.50;;;16.70;99.90;;;;;;5013374;28;20252;-70
2021/09/27 00:43:41;;;;;;;4.53;4.17;;;16.70;99.90;;;;;;5013127;28;20217;-70
2021/09/27 00:46:11;;;;;;;4.47;3.93;;;16.70;99.90;;;;;;5013734;28;20492;-71
2021/09/27 00:48:37;;;;;;;4.30;3.90;;;16.70;99.90;;;;;;5013374;28;20953;-70
2021/09/27 00:51:08;;;;;;;5.30;4.67;;;16.70;99.90;;;;;;5013310;28;20409;-70
2021/09/27 00:53:40;;;;;;;5.43;3.90;;;16.60;99.90;;;;;;5012906;28;20435;-70
2021/09/27 00:56:06;;;;;;;4.40;4.10;;;16.60;99.90;;;;;;5013011;28;20467;-70
2021/09/27 00:58:33;;;;;;;4.73;4.17;;;16.60;99.90;;;;;;5012812;28;20559;-70
2021/09/27 01:01:00;;;;;;;4.50;4.10;;;16.60;99.90;;;;;;4995372;28;20454;-71
2021/09/27 01:03:26;;;;;;;4.60;4.20;;;16.60;99.90;;;;;;5012722;28;20414;-70
2021/09/27 01:06:13;;;;;;;4.57;4.17;;;16.60;99.90;;;;;;5012950;28;20940;-71
2021/09/27 01:09:11;;;;;;;5.43;4.20;;;16.60;99.90;;;;;;5013811;28;20409;-70
2021/09/27 01:11:58;;;;;;;4.30;3.93;;;16.60;99.90;;;;;;5012647;28;20504;-70
2021/09/27 01:15:02;;;;;;;5.10;4.60;;;16.60;99.90;;;;;;5012575;28;20503;-70
2021/09/27 01:17:34;;;;;;;3.83;3.43;;;16.60;99.90;;;;;;5012787;28;20460;-71
2021/09/27 01:20:36;;;;;;;4.73;4.23;;;16.50;99.90;;;;;;5012768;28;20417;-71
2021/09/27 01:23:15;;;;;;;4.80;4.27;;;16.50;99.90;;;;;;5012458;28;20416;-71
2021/09/27 01:25:50;;;;;;;4.73;4.03;;;16.50;99.90;;;;;;5012397;28;20421;-71
2021/09/27 01:28:34;;;;;;;6.67;4.40;;;16.50;99.90;;;;;;5012755;28;20410;-71
2021/09/27 01:31:24;;;;;;;5.27;4.67;;;16.50;99.90;;;;;;5012542;28;20411;-70
2021/09/27 01:34:16;;;;;;;4.30;3.90;;;16.40;99.90;;;;;;5012326;28;20419;-70
2021/09/27 01:36:51;;;;;;;5.27;4.77;;;16.40;99.90;;;;;;5012603;28;20423;-70
2021/09/27 01:39:33;;;;;;;6.30;4.60;;;16.40;99.90;;;;;;5007723;28;20425;-70
2021/09/27 01:42:40;;;;;;;4.63;4.10;;;16.40;99.90;;;;;;5012281;28;20548;-70
2021/09/27 01:45:18;;;;;;;5.10;4.03;;;16.40;99.90;;;;;;5012200;28;20863;-70
2021/09/27 01:48:02;;;;;;;4.60;3.53;;;16.40;99.90;;;;;;4994321;28;20420;-71
2021/09/27 01:50:35;;;;;;;4.67;4.17;;;16.40;99.90;;;;;;5012373;28;20492;-70
2021/09/27 01:53:21;;;;;;;4.20;3.27;;;16.40;99.90;;;;;;5012020;28;20419;-70
2021/09/27 01:56:01;;;;;;;3.50;3.20;;;16.40;99.90;;;;;;5012175;28;21008;-71
2021/09/27 01:58:59;;;;;;;4.80;4.30;;;16.50;99.90;;;;;;5012017;28;20488;-69
2021/09/27 02:01:42;;;;;;;5.73;4.77;;;16.60;99.90;;;;;;5012154;28;20462;-69
2021/09/27 02:04:14;;;;;;;4.30;3.80;;;16.60;99.90;;;;;;5011721;28;20544;-70
2021/09/27 02:06:44;;;;;;;4.27;3.83;;;16.60;99.90;;;;;;5011950;28;20801;-71
2021/09/27 02:09:16;;;;;;;4.63;4.17;;;16.60;99.90;;;;;;5012047;28;20414;-70
2021/09/27 02:11:47;;;;;;;3.90;3.47;;;16.60;99.90;;;;;;5012082;28;20408;-70
2021/09/27 02:14:26;;;;;;;4.70;3.90;;;16.60;99.90;;;;;;5011606;28;20417;-69
2021/09/27 02:17:06;;;;;;;4.83;4.37;;;16.60;99.90;;;;;;5012027;28;20496;-70
2021/09/27 02:20:16;;;;;;;4.30;3.37;;;16.60;99.90;;;;;;5012107;28;20410;-71
2021/09/27 02:23:26;;;;;;;3.40;2.90;;;16.70;99.90;;;;;;5011897;28;20506;-70
2021/09/27 02:25:52;;;;;;;4.33;3.67;;;16.60;99.90;;;;;;5011858;28;20930;-70
2021/09/27 02:28:21;;;;;;;4.20;3.60;;;16.60;99.90;;;;;;5011826;28;20776;-70
2021/09/27 02:31:11;;;;;;;6.17;4.07;;;16.70;99.90;;;;;;5012058;28;20453;-69
2021/09/27 02:33:59;;;;;;;4.50;3.87;;;16.70;99.90;;;;;;5011686;28;20416;-70
2021/09/27 02:36:36;;;;;;;4.03;3.43;;;16.70;99.90;;;;;;5011704;28;20440;-70
2021/09/27 02:39:15;;;;;;;4.67;4.07;;;16.70;99.90;;;;;;5011711;28;20470;-70
2021/09/27 02:42:25;;;;;;;4.47;3.40;;;16.70;99.90;;;;;;4994441;28;20520;-70
2021/09/27 02:44:51;;;;;;;3.87;3.50;;;16.70;99.90;;;;;;4992224;28;20538;-69
2021/09/27 02:47:23;;;;;;;4.03;3.70;;;16.70;99.90;;;;;;5011635;28;20409;-70
2021/09/27 02:49:55;;;;;;;5.67;4.10;;;16.60;99.90;;;;;;5011669;28;20447;-71
2021/09/27 02:52:20;;;;;;;4.20;3.63;;;16.70;99.90;;;;;;5011204;28;20417;-69
2021/09/27 02:54:59;;;;;;;5.40;4.03;;;16.60;99.90;;;;;;5011304;28;20426;-70
2021/09/27 02:57:56;;;;;;;4.20;3.80;;;16.60;99.90;;;;;;5011584;28;20519;-69
2021/09/27 03:00:41;;;;;;;4.10;3.70;;;16.60;99.90;;;;;;5014714;28;20423;-71
2021/09/27 03:03:22;;;;;;;4.30;3.30;;;16.60;99.90;;;;;;5014820;28;20424;-69
2021/09/27 03:06:07;;;;;;;3.93;3.63;;;16.60;99.90;;;;;;5015037;28;20552;-70
2021/09/27 03:08:56;;;;;;;4.13;3.43;;;16.50;99.90;;;;;;5015266;28;20520;-70
2021/09/27 03:11:43;;;;;;;4.20;3.83;;;16.50;99.90;;;;;;5014946;28;20886;-70
2021/09/27 03:14:49;;;;;;;4.33;3.67;;;16.50;99.90;;;;;;5014807;28;20416;-71
2021/09/27 03:17:39;;;;;;;3.47;3.17;;;16.50;99.90;;;;;;4973421;28;20802;-69
2021/09/27 03:20:10;;;;;;;5.03;4.53;;;16.50;99.90;;;;;;5013066;28;20426;-70
2021/09/27 03:22:52;;;;;;;4.23;3.83;;;16.40;99.90;;;;;;4997226;28;20847;-71
2021/09/27 03:25:41;;;;;;;6.30;4.53;;;16.40;99.90;;;;;;5014678;28;20423;-69
2021/09/27 03:28:33;;;;;;;4.80;3.77;;;16.40;99.90;;;;;;4997046;28;20405;-69
2021/09/27 03:31:09;;;;;;;4.60;3.50;;;16.40;99.90;;;;;;5014935;28;20754;-70
2021/09/27 03:33:55;;;;;;;5.57;4.10;;;16.40;99.90;;;;;;5014505;28;20466;-69
2021/09/27 03:36:44;;;;;;;6.50;4.80;;;16.40;99.90;;;;;;5014593;28;20567;-70
2021/09/27 03:39:39;;;;;;;5.00;4.13;;;16.40;99.90;;;;;;5013864;28;20866;-69
2021/09/27 03:42:13;;;;;;;4.60;4.20;;;16.40;99.90;;;;;;4996625;28;20476;-71
2021/09/27 03:44:55;;;;;;;5.57;4.13;;;16.40;99.90;;;;;;5014153;28;20410;-69
2021/09/27 03:47:34;;;;;;;4.90;4.23;;;16.40;99.90;;;;;;5013675;28;20400;-70
2021/09/27 03:50:13;;;;;;;4.43;3.47;;;16.40;99.90;;;;;;4996842;28;20417;-70
2021/09/27 03:52:49;;;;;;;5.33;4.60;;;16.40;99.90;;;;;;5013977;28;20435;-69
2021/09/27 03:55:39;;;;;;;4.50;3.70;;;16.40;99.90;;;;;;5014132;28;20495;-70
2021/09/27 03:58:10;;;;;;;4.37;3.97;;;16.50;99.90;;;;;;4993126;28;20425;-69
2021/09/27 04:00:51;;;;;;;5.13;4.63;;;16.50;99.90;;;;;;5014312;28;20403;-69
2021/09/27 04:03:42;;;;;;;4.43;4.03;;;16.50;99.90;;;;;;5013686;28;20394;-69
2021/09/27 04:06:20;;;;;;;4.30;3.90;;;16.50;99.90;;;;;;5014167;28;20425;-69
2021/09/27 04:09:06;;;;;;;7.23;4.43;;;16.50;99.90;;;;;;4996994;28;20425;-69
2021/09/27 04:12:17;;;;;;;5.33;4.00;;;16.50;99.90;;;;;;5013822;28;20417;-71
2021/09/27 04:15:03;;;;;;;4.37;3.97;;;16.60;99.90;;;;;;4998083;28;20524;-69
2021/09/27 04:18:01;;;;;;;5.43;3.73;;;16.60;99.90;;;;;;5013875;28;20804;-69
2021/09/27 04:20:52;;;;;;;5.20;4.47;;;16.60;99.90;;;;;;5013950;28;20560;-69
2021/09/27 04:24:01;;;;;;;3.80;3.40;;;16.50;99.90;;;;;;5013489;28;20499;-69
2021/09/27 04:26:48;;;;;;;5.20;4.60;;;16.60;99.90;;;;;;5013532;28;20479;-70
2021/09/27 04:29:55;;;;;;;4.80;3.73;;;16.60;99.90;;;;;;5013920;28;20404;-69
2021/09/27 04:32:48;;;;;;;3.80;3.50;;;16.60;99.90;;;;;;5013098;28;20399;-70
2021/09/27 04:35:33;;;;;;;5.83;4.13;;;16.60;99.90;;;;;;5013384;28;20502;-70
2021/09/27 04:38:01;;;;;;;5.80;5.27;;;16.60;99.90;;;;;;5013517;28;20437;-70
2021/09/27 04:40:57;;;;;;;4.13;3.70;;;16.60;99.90;;;;;;5013184;28;20410;-69
2021/09/27 04:44:01;;;;;;;4.10;3.40;;;16.60;99.90;;;;;;5013223;28;20508;-69
2021/09/27 04:46:38;;;;;;;5.07;4.57;;;16.50;99.90;;;;;;5013363;28;20951;-70
2021/09/27 04:49:30;;;;;;;3.90;3.50;;;16.60;99.90;;;;;;5013192;28;20416;-70
2021/09/27 04:52:10;;;;;;;4.83;4.30;;;16.60;99.90;;;;;;5013302;28;20781;-70
2021/09/27 04:55:02;;;;;;;5.50;4.50;;;16.60;99.90;;;;;;5013113;28;20681;-70
2021/09/27 04:57:55;;;;;;;3.70;3.43;;;16.60;99.90;;;;;;5012984;28;20410;-70
2021/09/27 05:00:49;;;;;;;4.60;4.00;;;16.60;99.90;;;;;;5013242;28;20548;-70
2021/09/27 05:03:38;;;;;;;4.13;3.73;;;16.70;99.90;;;;;;5012683;28;20501;-70
2021/09/27 05:06:32;;;;;;;5.10;4.00;;;16.60;99.90;;;;;;5012828;28;20949;-70
2021/09/27 05:09:03;;;;;;;5.00;4.13;;;16.70;99.90;;;;;;5013214;28;20888;-70
2021/09/27 05:11:56;;;;;;;5.17;4.70;;;16.70;99.90;;;;;;5012605;28;20476;-70
2021/09/27 05:14:39;;;;;;;3.93;3.63;;;16.70;99.90;;;;;;5012299;28;20409;-70
2021/09/27 05:17:25;;;;;;;5.37;4.53;;;16.70;99.90;;;;;;5012557;28;20407;-69
2021/09/27 05:20:18;;;;;;;4.47;4.00;;;16.70;99.90;;;;;;5012718;28;20437;-69
2021/09/27 05:22:54;;;;;;;5.20;4.70;;;16.70;99.90;;;;;;4990328;28;20848;-69
2021/09/27 05:25:52;;;;;;;5.43;4.07;;;16.70;99.90;;;;;;5012552;28;20488;-69
2021/09/27 05:28:45;;;;;;;4.97;4.53;;;16.60;99.90;;;;;;5012058;28;20428;-69
2021/09/27 05:31:37;;;;;;;4.03;3.60;;;16.60;99.90;;;;;;5012374;28;20405;-69
2021/09/27 05:34:41;;;;;;;4.33;3.93;;;16.70;99.90;;;;;;5012175;28;20412;-70
2021/09/27 05:37:19;;;;;;;4.67;4.00;;;16.70;99.90;;;;;;5012305;28;20783;-69
2021/09/27 05:40:05;;;;;;;7.00;4.57;;;16.70;99.90;;;;;;5012455;28;20437;-70
2021/09/27 05:42:54;;;;;;;5.90;3.90;;;16.70;99.90;;;;;;5012005;28;20457;-69
2021/09/27 05:45:57;;;;;;;5.00;4.50;;;16.70;99.90;;;;;;5012048;28;20424;-70
2021/09/27 05:48:40;;;;;;;8.13;4.80;;;16.80;99.90;;;;;;5012314;28;20412;-69
2021/09/27 05:51:10;;;;;;;4.83;4.23;;;16.80;99.90;;;;;;5012054;28;20537;-70
2021/09/27 05:54:23;;;;;;;4.47;4.07;;;16.90;99.90;;;;;;5011664;28;20450;-69
2021/09/27 05:57:06;;;;;;;3.87;3.57;;;16.90;99.90;;;;;;5012025;28;20560;-70
2021/09/27 05:59:44;;;;;;;5.10;4.47;;;17.00;99.90;;;;;;5012051;28;20464;-69
2021/09/27 06:02:47;;;;;;;4.30;3.90;;;17.00;99.90;;;;;;5011931;28;20813;-69
2021/09/27 06:05:27;;;;;;;5.00;4.53;;;17.00;99.90;;;;;;5012360;28;20455;-69
2021/09/27 06:08:14;;;;;;;5.90;5.30;;;16.90;99.90;;;;;;5012404;28;20812;-70
2021/09/27 06:10:49;;;;;;;4.13;3.50;;;17.00;99.90;;;;;;5011961;28;20958;-70
2021/09/27 06:13:28;;;;;;;6.10;5.43;;;17.10;99.90;;;;;;5011932;28;20460;-70
2021/09/27 06:16:01;;;;;;;5.07;3.97;;;17.10;99.90;;;;;;5011960;28;20820;-69
2021/09/27 06:19:04;;;;;;;4.63;4.20;;;17.10;99.90;;;;;;5012065;28;20436;-70
2021/09/27 06:21:57;;;;;;;5.30;4.70;;;17.00;99.90;;;;;;4995020;28;20463;-70
2021/09/27 06:24:48;;;;;;;4.63;4.13;;;17.10;99.90;;;;;;5011637;28;20431;-70
2021/09/27 06:27:22;;;;;;;5.37;4.83;;;17.20;99.90;;;;;;5011954;28;20402;-71
2021/09/27 06:30:20;;;;;;;5.40;4.10;;;17.20;99.90;;;;;;5012292;28;20753;-70
2021/09/27 06:33:10;;;;;;;5.23;4.80;;;17.20;99.90;;;;;;5012645;28;20410;-70
2021/09/27 06:35:40;;;;;;;5.07;4.00;;;17.40;99.90;;;;;;5016224;28;20484;-71
2021/09/27 06:38:09;;;;;;;5.83;4.77;;;17.40;99.90;;;;;;5016302;28;20410;-70
2021/09/27 06:40:39;;;;;;;4.33;3.90;;;17.50;99.90;;;;;;5016368;28;20420;-70
2021/09/27 06:43:14;;;;;;;5.70;4.83;;;17.70;99.90;;;;;;5016077;28;20925;-70
2021/09/27 06:45:42;;;;;;;5.20;4.43;;;18.00;99.90;;;;;;5015443;28;20419;-71
2021/09/27 06:48:08;;;;;;;4.53;3.83;;;18.00;99.90;;;;;;5015443;28;20412;-71
2021/09/27 06:50:33;;;;;;;4.43;4.03;;;18.00;99.90;;;;;;5015535;28;20387;-68
2021/09/27 06:52:59;;;;;;;4.90;4.50;;;18.20;99.90;;;;;;5015260;28;20610;-69
2021/09/27 06:55:24;;;;;;;5.13;4.53;;;18.00;99.90;;;;;;5015196;28;20337;-69
2021/09/27 06:57:50;;;;;;;4.10;3.73;;;18.20;99.90;;;;;;5015314;28;20194;-70
2021/09/27 07:00:16;;;;;;;5.10;4.33;;;18.30;99.90;;;;;;5015188;28;20200;-69
2021/09/27 07:02:42;;;;;;;3.97;3.57;;;18.40;99.90;;;;;;5014832;28;20193;-68
2021/09/27 07:05:09;;;;;;;4.40;4.00;;;18.60;99.90;;;;;;5015171;28;20328;-69
2021/09/27 07:07:36;;;;;;;5.43;4.10;;;18.70;99.90;;;;;;5015436;28;20441;-69
2021/09/27 07:10:04;;;;;;;5.10;3.80;;;18.90;99.90;;;;;;5015528;28;20398;-72
2021/09/27 07:12:30;;;;;;;4.60;4.07;;;19.30;99.90;;;;;;5014757;28;20914;-69
2021/09/27 07:14:55;;;;;;;5.90;4.97;;;19.60;99.90;;;;;;5014874;28;20430;-70
2021/09/27 07:17:24;;;;;;;4.43;3.70;;;19.90;99.90;;;;;;5014774;28;20242;-70
2021/09/27 07:19:49;;;;;;;3.80;3.50;;;19.90;99.90;;;;;;4997313;28;20174;-70
2021/09/27 07:22:15;;;;;;;4.07;3.37;;;19.70;99.90;;;;;;5014580;28;20448;-71
2021/09/27 07:24:40;;;;;;;3.60;3.20;;;19.90;99.90;;;;;;5014641;28;20221;-70
2021/09/27 07:27:08;;;;;;;4.63;4.03;;;20.00;99.90;;;;;;5014371;28;20690;-69
2021/09/27 07:29:33;;;;;;;5.00;4.60;;;20.30;99.90;;;;;;5014670;28;20748;-69
2021/09/27 07:31:59;;;;;;;3.67;3.37;;;20.30;99.90;;;;;;5014648;28;20406;-71
2021/09/27 07:34:25;;;;;;;4.23;3.80;;;20.50;99.90;;;;;;5014467;28;20227;-70
2021/09/27 07:36:53;;;;;;;3.73;3.33;;;21.00;99.90;;;;;;5014703;28;20685;-69
2021/09/27 07:39:19;;;;;;;4.80;4.00;;;21.10;99.90;;;;;;5014651;28;20176;-70
2021/09/27 07:41:45;;;;;;;5.03;4.07;;;21.30;99.90;;;;;;5014456;28;20508;-69
2021/09/27 07:44:10;;;;;;;3.73;3.43;;;21.40;99.90;;;;;;5013533;28;20414;-69
2021/09/27 07:46:37;;;;;;;3.53;3.23;;;21.00;99.90;;;;;;5014559;28;20437;-69
2021/09/27 07:49:02;;;;;;;4.73;4.07;;;21.60;99.90;;;;;;5014745;28;20178;-70
2021/09/27 07:51:28;;;;;;;4.27;3.87;;;21.80;99.90;;;;;;5014492;28;20412;-70
2021/09/27 07:53:54;;;;;;;4.40;4.00;;;21.80;99.90;;;;;;5013961;28;20186;-70
2021/09/27 07:56:22;;;;;;;5.53;4.70;;;21.60;99.90;;;;;;5014235;28;20291;-70
2021/09/27 07:58:47;;;;;;;3.63;3.30;;;21.20;99.90;;;;;;5014038;28;20644;-71
2021/09/27 08:01:13;;;;;;;3.87;3.57;;;21.20;99.90;;;;;;5013931;28;20523;-69
2021/09/27 08:03:40;;;;;;;4.87;3.73;;;21.20;99.90;;;;;;5013754;28;20585;-71
2021/09/27 08:06:06;;;;;;;4.40;4.00;;;21.30;99.90;;;;;;5013987;28;20421;-71
2021/09/27 08:08:32;;;;;;;3.70;3.37;;;21.30;99.90;;;;;;5013976;28;20498;-69
2021/09/27 08:10:57;;;;;;;4.10;3.70;;;20.90;99.90;;;;;;4996295;28;20179;-71
2021/09/27 08:13:23;;;;;;;5.47;4.10;;;21.10;99.90;;;;;;4995749;28;20186;-70
2021/09/27 08:15:51;;;;;;;4.20;3.80;;;21.30;99.90;;;;;;5013672;28;20195;-70
2021/09/27 08:18:19;;;;;;;3.90;3.53;;;21.20;99.90;;;;;;5013758;28;20188;-71
2021/09/27 08:20:56;;;;;;;3.00;2.47;;;21.30;99.90;;;;;;5013582;28;20893;-71
2021/09/27 08:23:22;;;;;;;4.10;3.50;;;21.10;99.90;;;;;;4996425;28;20428;-71
2021/09/27 08:25:50;;;;;;;3.67;3.37;;;21.10;99.90;;;;;;5013539;28;20485;-69
2021/09/27 08:28:19;;;;;;;4.13;3.60;;;20.90;99.90;;;;;;5013761;28;20914;-70
2021/09/27 08:30:53;;;;;;;3.90;3.60;;;20.90;99.90;;;;;;5013956;28;20409;-70
2021/09/27 08:33:20;;;;;;;4.07;3.63;;;20.60;99.90;;;;;;5013420;28;20471;-70
2021/09/27 08:35:47;;;;;;;5.00;3.80;;;20.70;99.90;;;;;;5013375;28;20420;-71
2021/09/27 08:38:13;;;;;;;5.30;4.43;;;20.50;99.90;;;;;;5013348;28;20437;-70
2021/09/27 08:40:47;;;;;;;4.00;3.60;;;20.50;99.90;;;;;;5013291;28;20412;-71
2021/09/27 08:43:45;;;;;;;4.23;3.70;;;20.70;99.90;;;;;;5013218;28;20522;-70
2021/09/27 08:46:21;;;;;;;4.53;3.80;;;20.10;99.90;;;;;;5013323;28;20453;-71
2021/09/27 08:49:13;;;;;;;4.30;3.90;;;19.80;99.90;;;;;;5013255;28;20408;-69
2021/09/27 08:51:39;;;;;;;3.67;3.37;;;20.00;99.90;;;;;;5013292;28;20397;-69
2021/09/27 08:54:11;;;;;;;4.30;3.90;;;19.80;99.90;;;;;;5013094;28;20464;-69
2021/09/27 08:56:45;;;;;;;4.43;4.03;;;19.80;99.90;;;;;;5012107;28;20226;-69
2021/09/27 08:59:19;;;;;;;5.17;4.50;;;19.80;99.90;;;;;;5013146;28;20406;-71
2021/09/27 09:02:23;;;;;;;4.67;4.00;;;19.80;99.90;;;;;;5013001;28;20446;-69
2021/09/27 09:05:12;;;;;;;4.83;4.43;;;19.80;99.90;;;;;;5012961;28;20426;-71
2021/09/27 09:07:46;;;;;;;4.57;4.17;;;20.00;99.90;;;;;;5012932;28;20775;-71
2021/09/27 09:10:14;;;;;;;5.07;4.10;;;20.20;99.90;;;;;;5012897;28;20419;-70
2021/09/27 09:12:47;;;;;;;4.10;3.70;;;20.30;99.90;;;;;;5012932;28;20549;-71
2021/09/27 09:15:16;;;;;;;4.57;4.17;;;20.30;99.90;;;;;;4995181;28;20428;-70
2021/09/27 09:17:56;;;;;;;4.30;3.30;;;20.20;99.90;;;;;;5109575;27;20922;-71
2021/09/27 09:20:48;;;;;;;6.73;4.47;;;19.90;99.90;;;;;;5109451;28;20498;-69
2021/09/27 09:23:26;;;;;;;4.03;3.70;;;19.70;99.90;;;;;;5110605;28;20427;-69
2021/09/27 09:25:52;;;;;;;5.40;4.90;;;19.70;99.90;;;;;;5109547;28;20441;-69
2021/09/27 09:28:18;;;;;;;6.27;4.07;;;19.70;99.90;;;;;;5109273;28;20405;-69
2021/09/27 09:30:53;;;;;;;4.87;4.07;;;19.70;99.90;;;;;;5109417;28;20175;-69
2021/09/27 09:33:40;;;;;;;5.00;4.13;;;19.90;99.90;;;;;;5109203;28;20391;-70
2021/09/27 09:36:07;;;;;;;5.80;4.30;;;20.00;99.90;;;;;;5109184;28;20496;-70
2021/09/27 09:38:38;;;;;;;4.40;4.00;;;20.00;99.90;;;;;;5109190;28;20905;-70
2021/09/27 09:41:05;;;;;;;3.67;3.37;;;20.20;99.90;;;;;;5109237;28;20410;-70
2021/09/27 09:43:36;;;;;;;3.87;3.43;;;20.00;99.90;;;;;;5108994;28;20471;-68
2021/09/27 09:46:02;;;;;;;3.90;3.60;;;20.20;99.90;;;;;;5109173;28;20438;-70
2021/09/27 09:48:27;;;;;;;5.43;3.80;;;20.40;99.90;;;;;;5109377;28;20959;-69
2021/09/27 09:50:59;;;;;;;5.63;4.37;;;20.30;99.90;;;;;;5109548;28;20176;-70
2021/09/27 09:53:28;;;;;;;5.00;4.40;;;20.40;99.90;;;;;;5108554;28;20183;-70
2021/09/27 09:56:16;;;;;;;4.37;4.00;;;20.50;99.90;;;;;;5109095;28;20453;-71
2021/09/27 09:58:49;;;;;;;5.10;3.90;;;20.50;99.90;;;;;;5108948;28;20406;-70
2021/09/27 10:01:33;;;;;;;3.77;3.47;;;20.60;99.90;;;;;;5108624;28;20905;-68
2021/09/27 10:04:09;;;;;;;4.93;4.40;;;20.70;99.90;;;;;;5109107;28;20411;-68
2021/09/27 10:06:46;;;;;;;4.90;4.50;;;20.70;99.90;;;;;;5109374;28;20971;-69
2021/09/27 10:09:25;;;;;;;5.43;4.30;;;20.50;99.90;;;;;;5107425;27;20791;-70
2021/09/27 10:11:54;;;;;;;4.27;3.80;;;20.30;99.90;;;;;;5108628;28;20504;-70
2021/09/27 10:14:29;;;;;;;4.53;4.13;;;20.50;99.90;;;;;;5108460;28;20495;-69
2021/09/27 10:17:12;;;;;;;4.73;4.13;;;20.50;99.90;;;;;;5108538;28;20861;-69
2021/09/27 10:19:51;;;;;;;4.00;3.70;;;20.20;99.90;;;;;;5107199;28;20500;-70
2021/09/27 10:22:24;;;;;;;5.73;5.13;;;20.40;99.90;;;;;;5108254;28;20413;-69
2021/09/27 10:24:53;;;;;;;4.77;3.90;;;20.50;99.90;;;;;;5108254;28;20448;-70
2021/09/27 10:27:36;;;;;;;4.13;3.73;;;20.70;99.90;;;;;;5105548;28;20837;-69
2021/09/27 10:30:14;;;;;;;4.90;4.40;;;20.70;99.90;;;;;;5093654;28;20398;-70
2021/09/27 10:32:45;;;;;;;5.60;4.23;;;20.60;99.90;;;;;;5094776;28;20813;-70
2021/09/27 10:35:45;;;;;;;6.00;5.03;;;20.40;99.90;;;;;;5094304;28;21042;-70
2021/09/27 10:38:18;;;;;;;4.53;4.07;;;20.50;99.90;;;;;;5095056;28;20405;-69
2021/09/27 10:40:47;;;;;;;5.37;4.83;;;20.10;99.90;;;;;;5095016;28;20394;-69
2021/09/27 10:43:18;;;;;;;4.13;3.77;;;20.20;99.90;;;;;;5094010;28;20396;-69
2021/09/27 10:45:47;;;;;;;4.30;3.90;;;20.30;99.90;;;;;;5094500;28;20437;-69
2021/09/27 10:48:13;;;;;;;5.47;4.63;;;20.20;99.90;;;;;;5094275;28;20797;-70
2021/09/27 10:50:58;;;;;;;4.70;4.20;;;20.20;99.90;;;;;;5094319;28;20406;-70
2021/09/27 10:53:34;;;;;;;4.50;4.10;;;20.40;99.90;;;;;;5094147;28;20196;-69
2021/09/27 10:56:27;;;;;;;5.97;4.70;;;20.40;99.90;;;;;;5094065;28;20462;-70
2021/09/27 10:58:56;;;;;;;5.17;4.57;;;20.30;99.90;;;;;;5094295;28;20405;-69
2021/09/27 11:01:43;;;;;;;7.00;5.10;;;20.40;99.90;;;;;;5093975;28;20421;-69
2021/09/27 11:04:29;;;;;;;5.07;4.67;;;20.70;99.90;;;;;;5093640;28;20790;-69
2021/09/27 11:06:57;;;;;;;5.10;4.60;;;21.10;99.90;;;;;;5094092;28;20396;-69
2021/09/27 11:09:28;;;;;;;4.47;4.07;;;21.30;99.90;;;;;;5094035;28;20402;-69
2021/09/27 11:12:29;;;;;;;5.20;4.70;;;21.50;99.90;;;;;;5093844;28;20394;-70
2021/09/27 11:15:12;;;;;;;4.33;3.93;;;21.50;99.90;;;;;;5092392;28;20433;-70
2021/09/27 11:17:43;;;;;;;4.87;4.37;;;21.60;99.90;;;;;;5093563;28;20457;-71
2021/09/27 11:20:11;;;;;;;4.70;4.20;;;21.70;99.90;;;;;;5093717;28;20797;-69
2021/09/27 11:22:54;;;;;;;4.77;4.27;;;21.70;99.90;;;;;;5093399;28;20416;-69
2021/09/27 11:25:22;;;;;;;5.13;4.63;;;21.70;99.90;;;;;;5093606;28;20422;-69
2021/09/27 11:28:26;;;;;;;6.03;3.93;;;21.80;99.90;;;;;;5093713;28;20418;-69
2021/09/27 11:30:51;;;;;;;4.00;3.70;;;22.00;99.90;;;;;;5093770;28;20792;-69
2021/09/27 11:33:32;;;;;;;4.03;3.63;;;22.00;99.90;;;;;;5093016;28;20442;-69
2021/09/27 11:36:21;;;;;;;4.40;3.37;;;21.90;99.90;;;;;;5093466;28;20594;-69
2021/09/27 11:39:11;;;;;;;4.47;4.07;;;21.90;99.90;;;;;;5092855;28;20764;-69
2021/09/27 11:41:38;;;;;;;4.30;3.83;;;22.00;99.90;;;;;;5092945;28;20430;-70
2021/09/27 11:44:25;;;;;;;4.37;3.87;;;21.90;99.90;;;;;;5092930;28;20413;-69
2021/09/27 11:47:05;;;;;;;4.73;3.90;;;22.00;99.90;;;;;;5093205;28;20410;-69
2021/09/27 11:50:01;;;;;;;5.43;3.80;;;21.80;99.90;;;;;;5091872;28;20834;-70
2021/09/27 11:52:26;;;;;;;4.10;3.70;;;21.70;99.90;;;;;;5092901;28;20415;-70
2021/09/27 11:55:12;;;;;;;5.57;4.37;;;21.50;99.90;;;;;;5092908;28;20800;-69
2021/09/27 11:57:47;;;;;;;4.90;4.40;;;21.30;99.90;;;;;;5091811;28;20252;-71
2021/09/27 12:00:23;;;;;;;4.00;3.33;;;21.20;99.90;;;;;;5091840;28;20412;-70
2021/09/27 12:03:15;;;;;;;3.80;3.40;;;21.50;99.90;;;;;;5092649;28;20420;-70
2021/09/27 12:05:59;;;;;;;3.57;3.27;;;21.40;99.90;;;;;;5092914;28;20417;-70
2021/09/27 12:08:24;;;;;;;4.30;3.90;;;21.40;99.90;;;;;;5092846;28;20440;-69
2021/09/27 12:10:56;;;;;;;4.30;3.90;;;21.60;99.90;;;;;;5092625;28;20490;-69
2021/09/27 12:13:34;;;;;;;3.83;3.53;;;21.30;99.90;;;;;;5092463;28;20571;-72
2021/09/27 12:16:01;;;;;;;4.00;3.33;;;21.40;99.90;;;;;;5092453;28;20529;-70
2021/09/27 12:18:44;;;;;;;4.60;3.77;;;21.50;99.90;;;;;;5092709;28;20396;-69
2021/09/27 12:21:40;;;;;;;3.40;3.13;;;21.60;99.90;;;;;;5092430;28;20903;-70
2021/09/27 12:24:08;;;;;;;3.73;3.33;;;21.50;99.90;;;;;;5090421;28;20446;-70
2021/09/27 12:26:54;;;;;;;3.70;3.40;;;21.70;99.90;;;;;;5092447;28;20441;-70
2021/09/27 12:29:25;;;;;;;3.90;3.57;;;21.60;99.90;;;;;;5092469;28;20407;-70
2021/09/27 12:32:22;;;;;;;3.47;3.10;;;21.50;99.90;;;;;;5091082;28;20423;-69
2021/09/27 12:34:48;;;;;;;3.87;3.47;;;21.70;99.90;;;;;;5091849;28;20767;-69
2021/09/27 12:37:20;;;;;;;4.10;3.70;;;21.40;99.90;;;;;;5092159;28;20468;-71
2021/09/27 12:39:47;;;;;;;3.77;3.43;;;21.70;99.90;;;;;;5092397;28;20774;-70
2021/09/27 12:42:19;;;;;;;3.20;3.00;;;21.80;99.90;;;;;;5091927;28;20416;-70
2021/09/27 12:44:52;;;;;;;4.53;3.87;;;22.00;99.90;;;;;;5092587;28;20425;-69
2021/09/27 12:47:18;;;;;;;4.07;3.67;;;22.20;99.90;;;;;;5092397;28;20410;-70
2021/09/27 12:49:53;;;;;;;4.10;3.70;;;21.80;99.90;;;;;;5092232;28;20488;-69
2021/09/27 12:52:44;;;;;;;3.63;3.13;;;22.10;99.90;;;;;;5091914;28;20961;-70
2021/09/27 12:55:13;;;;;;;4.40;4.00;;;21.80;99.90;;;;;;5092080;28;20429;-69
2021/09/27 12:57:47;;;;;;;2.90;2.60;;;21.90;99.90;;;;;;5092178;28;20923;-69
2021/09/27 13:00:25;;;;;;;3.27;2.97;;;21.80;99.90;;;;;;5091852;28;20399;-71
2021/09/27 13:02:51;;;;;;;3.63;3.10;;;21.80;99.90;;;;;;5091663;28;20437;-69
2021/09/27 13:05:21;;;;;;;4.70;3.70;;;21.70;99.90;;;;;;5092016;28;20518;-69
2021/09/27 13:07:50;;;;;;;4.30;3.90;;;21.80;99.90;;;;;;5092016;28;20422;-71
2021/09/27 13:10:44;;;;;;;3.50;3.13;;;21.90;99.90;;;;;;5091865;28;20481;-70
2021/09/27 13:13:22;;;;;;;4.00;3.60;;;21.80;99.90;;;;;;5091710;28;20426;-68
2021/09/27 13:15:58;;;;;;;3.50;3.20;;;21.70;99.90;;;;;;5091229;28;20513;-69
2021/09/27 13:18:32;;;;;;;4.00;3.70;;;21.80;99.90;;;;;;5091754;28;20427;-69
2021/09/27 13:21:44;;;;;;;3.70;3.40;;;21.80;99.90;;;;;;5091792;28;20402;-70
2021/09/27 13:24:14;;;;;;;4.50;4.10;;;22.00;99.90;;;;;;5088784;28;20456;-70
2021/09/27 13:27:02;;;;;;;4.30;3.90;;;21.90;99.90;;;;;;5091749;28;20805;-71
2021/09/27 13:29:36;;;;;;;3.80;3.50;;;22.00;99.90;;;;;;5091745;28;20751;-69
2021/09/27 13:32:10;;;;;;;3.97;3.67;;;21.90;99.90;;;;;;5092005;28;20915;-70
2021/09/27 13:34:47;;;;;;;5.13;4.63;;;21.70;99.90;;;;;;5091536;28;20444;-69
2021/09/27 13:37:27;;;;;;;5.67;4.50;;;21.70;99.90;;;;;;5091622;28;20450;-69
2021/09/27 13:39:56;;;;;;;3.77;3.47;;;21.70;99.90;;;;;;5091550;28;20428;-69
2021/09/27 13:42:43;;;;;;;4.77;4.37;;;21.70;99.90;;;;;;5091333;28;20562;-70
2021/09/27 13:45:12;;;;;;;3.70;3.40;;;21.60;99.90;;;;;;5091589;28;20944;-70